Time;durP1;ratioP1;P1;durP2;ratioP2;P2;SDS_P1;SDS_P2;PMS_P1;PMS_P2;Temp;Humidity;BMP_temperature;BMP_pressure;BME280_temperature;BME280_humidity;BME280_pressure;Samples;Min_cycle;Max_cycle;Signal;HPM_P1;HPM_P2
2021/12/25 00:01:07;;;;;;;28.30;16.98;;;8.30;86.80;;;;;;5035526;28;20056;-81
2021/12/25 00:03:35;;;;;;;36.35;18.63;;;8.30;86.80;;;;;;5035610;28;20121;-81
2021/12/25 00:06:03;;;;;;;33.03;18.05;;;8.30;86.80;;;;;;5033316;28;20509;-81
2021/12/25 00:08:34;;;;;;;29.02;17.08;;;8.30;86.80;;;;;;5035577;28;20414;-81
2021/12/25 00:11:04;;;;;;;39.03;20.33;;;8.30;86.80;;;;;;5035316;28;20038;-81
2021/12/25 00:13:31;;;;;;;38.85;21.40;;;8.30;86.80;;;;;;5035377;28;20128;-80
2021/12/25 00:15:58;;;;;;;36.80;20.67;;;8.40;86.90;;;;;;5035340;28;20510;-80
2021/12/25 00:18:26;;;;;;;49.60;23.88;;;8.40;86.90;;;;;;5035226;28;20150;-81
2021/12/25 00:20:53;;;;;;;47.50;23.67;;;8.40;86.90;;;;;;5034099;28;20050;-81
2021/12/25 00:23:22;;;;;;;41.33;21.92;;;8.40;86.90;;;;;;5035111;28;20042;-81
2021/12/25 00:25:55;;;;;;;34.83;19.95;;;8.30;86.90;;;;;;5035015;28;20068;-81
2021/12/25 00:36:08;;;;;;;43.95;22.50;;;8.40;86.90;;;;;;5033894;28;20071;-80
2021/12/25 00:38:36;;;;;;;29.38;17.17;;;8.40;86.90;;;;;;5034612;28;20049;-80
2021/12/25 00:41:05;;;;;;;38.85;20.92;;;8.40;86.90;;;;;;5034672;28;20045;-80
2021/12/25 00:43:32;;;;;;;29.08;17.00;;;8.40;86.90;;;;;;5034860;28;20434;-80
2021/12/25 00:46:00;;;;;;;32.78;18.98;;;8.40;86.90;;;;;;5034818;28;20056;-82
2021/12/25 00:48:28;;;;;;;34.33;18.17;;;8.40;86.90;;;;;;5018664;28;20103;-82
2021/12/25 00:50:55;;;;;;;49.13;24.50;;;8.40;86.90;;;;;;5033893;28;20616;-81
2021/12/25 00:53:22;;;;;;;56.20;27.45;;;8.40;86.90;;;;;;5034609;28;20414;-81
2021/12/25 00:55:50;;;;;;;34.75;20.50;;;8.40;86.90;;;;;;5034541;28;20048;-81
2021/12/25 00:58:17;;;;;;;46.10;23.77;;;8.40;86.90;;;;;;5034545;28;20042;-82
2021/12/25 01:00:45;;;;;;;61.92;28.02;;;8.40;86.90;;;;;;5034592;28;20045;-81
2021/12/25 01:03:12;;;;;;;48.22;24.42;;;8.40;86.90;;;;;;5033846;28;20049;-81
2021/12/25 01:05:39;;;;;;;40.33;21.45;;;8.40;86.90;;;;;;5031414;28;20050;-81
2021/12/25 01:08:07;;;;;;;37.15;21.27;;;8.40;86.90;;;;;;5034350;28;20038;-82
2021/12/25 01:10:34;;;;;;;44.83;22.15;;;8.40;86.90;;;;;;5065998;28;20046;-81
2021/12/25 01:13:12;;;;;;;40.08;21.20;;;8.40;86.90;;;;;;5034158;28;20543;-81
2021/12/25 01:15:56;;;;;;;52.70;25.73;;;8.40;86.90;;;;;;5020021;28;20418;-81
2021/12/25 01:18:54;;;;;;;45.85;23.83;;;8.40;86.90;;;;;;5033745;28;20041;-81
2021/12/25 01:39:43;;;;;;;37.47;21.55;;;8.40;86.90;;;;;;5033827;28;20049;-81
2021/12/25 01:50:10;;;;;;;35.53;21.42;;;8.40;86.90;;;;;;5033386;28;20045;-81
2021/12/25 01:52:37;;;;;;;34.72;20.05;;;8.50;86.90;;;;;;5033516;28;20052;-81
2021/12/25 01:55:12;;;;;;;30.92;18.08;;;8.40;86.90;;;;;;5033382;28;20049;-80
2021/12/25 01:57:40;;;;;;;33.72;20.88;;;8.40;86.90;;;;;;5033658;28;20042;-80
2021/12/25 02:00:21;;;;;;;35.63;20.70;;;8.50;86.90;;;;;;5032491;28;20045;-80
2021/12/25 02:02:49;;;;;;;29.00;19.10;;;8.40;86.90;;;;;;5031357;28;20056;-81
2021/12/25 02:05:18;;;;;;;36.55;21.08;;;8.40;86.90;;;;;;5033192;28;20088;-81
2021/12/25 02:07:46;;;;;;;37.10;21.02;;;8.40;86.80;;;;;;5033209;28;20198;-81
2021/12/25 02:10:14;;;;;;;36.95;21.48;;;8.50;86.90;;;;;;5033241;28;20048;-80
2021/12/25 02:12:41;;;;;;;35.03;20.45;;;8.40;86.90;;;;;;5033469;28;20037;-80
2021/12/25 02:15:15;;;;;;;33.88;20.83;;;8.40;86.90;;;;;;5032615;28;20053;-81
2021/12/25 02:20:37;;;;;;;31.17;19.27;;;8.40;86.90;;;;;;5032961;28;20053;-81
2021/12/25 02:23:15;;;;;;;34.85;19.70;;;8.50;86.90;;;;;;5033004;28;20498;-80
2021/12/25 02:25:43;;;;;;;32.17;19.88;;;8.50;86.90;;;;;;5032999;28;20045;-80
2021/12/25 02:28:13;;;;;;;35.80;18.88;;;8.50;86.90;;;;;;5032945;28;20041;-80
2021/12/25 02:30:42;;;;;;;31.63;19.80;;;8.50;86.90;;;;;;5032271;28;20041;-81
2021/12/25 02:33:09;;;;;;;29.42;19.02;;;8.40;86.90;;;;;;5032583;28;20041;-81
2021/12/25 02:35:37;;;;;;;30.42;19.48;;;8.50;86.90;;;;;;5032429;28;20049;-81
2021/12/25 02:38:05;;;;;;;30.65;18.55;;;8.50;86.90;;;;;;5032979;28;20061;-80
2021/12/25 02:40:32;;;;;;;29.33;18.85;;;8.50;86.90;;;;;;5032861;28;20512;-80
2021/12/25 02:42:59;;;;;;;35.50;18.30;;;8.50;86.90;;;;;;5032906;28;20497;-80
2021/12/25 02:45:26;;;;;;;33.40;18.17;;;8.50;86.90;;;;;;5016912;28;20052;-80
2021/12/25 02:47:56;;;;;;;29.65;19.08;;;8.50;86.90;;;;;;5032010;28;20386;-81
2021/12/25 02:50:31;;;;;;;31.30;19.15;;;8.50;86.90;;;;;;5032837;28;20055;-81
2021/12/25 02:53:04;;;;;;;33.58;20.23;;;8.50;86.90;;;;;;5032727;28;20046;-80
2021/12/25 02:55:31;;;;;;;33.53;20.53;;;8.50;86.90;;;;;;5031665;28;20045;-80
2021/12/25 02:57:59;;;;;;;30.80;18.80;;;8.50;86.90;;;;;;5032823;28;20303;-81
2021/12/25 03:00:37;;;;;;;27.80;17.70;;;8.50;86.90;;;;;;5032429;28;20053;-80
2021/12/25 03:03:05;;;;;;;29.67;19.48;;;8.50;86.90;;;;;;5028982;28;20124;-80
2021/12/25 03:05:32;;;;;;;34.67;21.83;;;8.50;86.90;;;;;;5033124;28;20510;-80
2021/12/25 03:08:05;;;;;;;31.88;20.02;;;8.50;86.90;;;;;;5032465;28;20053;-81
2021/12/25 03:10:34;;;;;;;27.10;17.75;;;8.50;86.90;;;;;;5032670;28;20045;-80
2021/12/25 03:13:56;;;;;;;30.65;19.73;;;8.50;86.90;;;;;;5032581;28;20052;-80
2021/12/25 03:15:54;;;;;;;27.25;17.88;;;8.50;86.90;;;;;;5019812;28;20050;-80
2021/12/25 03:18:27;;;;;;;28.50;17.70;;;8.50;86.90;;;;;;5032691;28;20099;-80
2021/12/25 03:20:58;;;;;;;30.65;19.65;;;8.50;86.90;;;;;;5027743;28;20060;-80
2021/12/25 03:23:27;;;;;;;31.02;18.92;;;8.50;86.90;;;;;;5034136;28;20051;-80
2021/12/25 03:25:57;;;;;;;29.80;19.27;;;8.50;86.90;;;;;;5032605;28;20038;-80
2021/12/25 03:28:31;;;;;;;33.45;18.95;;;8.50;86.90;;;;;;5032122;28;20045;-80
2021/12/25 03:31:01;;;;;;;29.98;18.08;;;8.50;86.90;;;;;;5032617;28;20049;-81
2021/12/25 03:33:28;;;;;;;28.05;19.17;;;8.50;86.90;;;;;;5017129;28;20117;-80
2021/12/25 03:35:56;;;;;;;29.17;18.92;;;8.50;86.90;;;;;;5027562;28;20049;-80
2021/12/25 03:38:26;;;;;;;30.92;18.67;;;8.50;87.00;;;;;;5032541;28;20046;-80
2021/12/25 03:40:53;;;;;;;28.92;18.83;;;8.50;87.00;;;;;;5032375;28;20049;-82
2021/12/25 03:43:21;;;;;;;26.00;17.15;;;8.50;87.00;;;;;;5035572;28;20045;-80
2021/12/25 03:45:49;;;;;;;25.60;17.27;;;8.50;86.90;;;;;;5035880;28;20046;-81
2021/12/25 03:48:42;;;;;;;30.55;18.90;;;8.50;87.00;;;;;;5036032;28;20497;-80
2021/12/25 03:59:04;;;;;;;27.63;17.60;;;8.50;87.00;;;;;;5035241;28;20037;-80
2021/12/25 04:06:52;;;;;;;24.38;16.58;;;8.50;86.90;;;;;;5035478;28;20049;-80
2021/12/25 04:09:25;;;;;;;30.42;18.55;;;8.50;86.90;;;;;;5035549;28;20050;-81
2021/12/25 04:11:58;;;;;;;29.50;18.33;;;8.50;86.90;;;;;;5034359;28;20054;-81
2021/12/25 04:14:25;;;;;;;31.23;18.58;;;8.50;86.90;;;;;;5036690;28;20653;-82
2021/12/25 04:16:52;;;;;;;24.50;17.30;;;8.50;86.90;;;;;;5035268;28;20041;-81
2021/12/25 04:19:20;;;;;;;25.27;17.50;;;8.50;86.90;;;;;;5035254;28;20049;-81
2021/12/25 04:21:55;;;;;;;28.88;18.35;;;8.50;86.90;;;;;;5035232;28;20049;-81
2021/12/25 04:24:24;;;;;;;28.58;17.70;;;8.50;86.90;;;;;;5035122;28;20513;-80
2021/12/25 04:26:51;;;;;;;27.25;18.35;;;8.50;86.90;;;;;;5034009;28;20049;-81
2021/12/25 04:29:35;;;;;;;29.92;19.60;;;8.50;86.90;;;;;;5035086;28;20057;-81
2021/12/25 05:02:56;;;;;;;32.38;20.30;;;8.50;87.00;;;;;;5030230;28;20507;-81
2021/12/25 05:05:23;;;;;;;29.85;20.15;;;8.50;87.00;;;;;;5027868;28;20057;-81
2021/12/25 05:07:50;;;;;;;37.60;20.10;;;8.50;87.00;;;;;;5029312;28;20052;-81
2021/12/25 05:10:18;;;;;;;29.83;19.33;;;8.50;87.00;;;;;;5029005;28;20053;-81
2021/12/25 05:12:45;;;;;;;32.97;19.45;;;8.40;87.00;;;;;;5029512;28;20045;-81
2021/12/25 05:15:12;;;;;;;30.20;20.15;;;8.40;87.00;;;;;;5030304;28;20571;-81
2021/12/25 05:17:39;;;;;;;39.33;20.05;;;8.40;87.00;;;;;;5028991;28;20045;-81
2021/12/25 05:20:06;;;;;;;31.08;19.98;;;8.50;87.00;;;;;;5029234;28;20518;-81
2021/12/25 05:22:33;;;;;;;29.98;19.73;;;8.40;87.00;;;;;;5029074;28;20042;-81
2021/12/25 05:25:01;;;;;;;29.48;19.48;;;8.40;87.00;;;;;;5028820;28;20043;-81
2021/12/25 05:27:28;;;;;;;33.95;20.90;;;8.50;87.10;;;;;;5029307;28;20056;-81
2021/12/25 05:29:55;;;;;;;30.85;19.02;;;8.40;87.00;;;;;;5017439;28;20506;-80
2021/12/25 05:32:22;;;;;;;37.85;19.90;;;8.50;87.10;;;;;;5033579;28;20049;-81
2021/12/25 05:34:49;;;;;;;37.92;20.40;;;8.40;87.00;;;;;;5033888;28;20045;-81
2021/12/25 05:37:16;;;;;;;34.72;20.63;;;8.50;87.10;;;;;;5033707;28;20071;-81
2021/12/25 05:39:49;;;;;;;38.70;22.88;;;8.50;87.10;;;;;;5033645;28;20041;-80
2021/12/25 05:42:22;;;;;;;33.35;21.92;;;8.50;87.10;;;;;;5033795;28;20075;-80
2021/12/25 05:44:51;;;;;;;31.45;17.95;;;8.50;87.10;;;;;;5032949;28;20103;-81
2021/12/25 05:47:18;;;;;;;36.53;19.98;;;8.40;87.10;;;;;;5033653;28;20077;-81
2021/12/25 05:49:45;;;;;;;42.63;21.17;;;8.50;87.10;;;;;;5033528;28;20041;-81
2021/12/25 05:52:13;;;;;;;33.42;19.65;;;8.50;87.10;;;;;;5033643;28;20041;-81
2021/12/25 05:54:40;;;;;;;35.88;21.67;;;8.50;87.10;;;;;;5033369;28;20051;-81
2021/12/25 05:57:07;;;;;;;36.15;20.45;;;8.40;87.10;;;;;;5032623;28;20053;-81
2021/12/25 05:59:34;;;;;;;35.85;19.50;;;8.50;87.10;;;;;;5033301;28;20049;-81
2021/12/25 06:02:01;;;;;;;42.92;22.08;;;8.40;87.10;;;;;;5033279;28;20490;-81
2021/12/25 06:04:28;;;;;;;39.72;22.05;;;8.50;87.10;;;;;;5032544;28;20041;-81
2021/12/25 06:06:55;;;;;;;37.42;21.98;;;8.40;87.10;;;;;;5033296;28;20430;-81
2021/12/25 06:09:23;;;;;;;35.83;21.23;;;8.40;87.10;;;;;;5033048;28;20053;-81
2021/12/25 06:11:50;;;;;;;42.50;21.70;;;8.40;87.10;;;;;;5032483;28;20049;-81
2021/12/25 06:14:19;;;;;;;47.42;23.35;;;8.50;87.10;;;;;;5033347;28;20045;-81
2021/12/25 06:16:48;;;;;;;46.63;22.20;;;8.40;87.10;;;;;;5033119;28;20445;-80
2021/12/25 06:19:16;;;;;;;35.13;21.02;;;8.40;87.10;;;;;;5033154;28;20052;-81
2021/12/25 06:21:43;;;;;;;36.97;20.33;;;8.40;87.10;;;;;;5033087;28;20072;-80
2021/12/25 06:24:13;;;;;;;37.30;20.92;;;8.40;87.10;;;;;;5032552;28;20053;-80
2021/12/25 06:26:40;;;;;;;37.47;20.50;;;8.40;87.10;;;;;;5030223;28;20523;-81
2021/12/25 06:29:07;;;;;;;34.05;20.17;;;8.40;87.10;;;;;;5032912;28;20048;-80
2021/12/25 06:31:34;;;;;;;39.00;20.65;;;8.40;87.10;;;;;;5033039;28;20068;-81
2021/12/25 06:34:03;;;;;;;31.80;20.15;;;8.40;87.10;;;;;;5033042;28;20045;-80
2021/12/25 06:36:30;;;;;;;31.77;19.75;;;8.40;87.10;;;;;;5017320;28;20048;-81
2021/12/25 06:38:57;;;;;;;33.40;20.33;;;8.40;87.10;;;;;;5032473;28;20045;-81
2021/12/25 06:41:24;;;;;;;34.90;21.63;;;8.40;87.10;;;;;;5034336;28;20049;-80
2021/12/25 06:43:51;;;;;;;35.42;20.00;;;8.40;87.10;;;;;;5032895;28;20052;-81
2021/12/25 06:46:18;;;;;;;38.00;20.30;;;8.40;87.10;;;;;;5032876;28;20060;-81
2021/12/25 06:48:45;;;;;;;32.83;19.25;;;8.40;87.10;;;;;;5032966;28;20129;-81
2021/12/25 06:51:14;;;;;;;32.42;19.83;;;8.40;87.10;;;;;;5032555;28;20052;-81
2021/12/25 06:53:41;;;;;;;31.55;19.75;;;8.40;87.10;;;;;;5030182;28;20494;-81
2021/12/25 06:56:08;;;;;;;33.35;20.38;;;8.40;87.20;;;;;;5032804;28;20041;-81
2021/12/25 06:58:35;;;;;;;35.05;21.10;;;8.40;87.20;;;;;;5032853;28;20051;-81
2021/12/25 07:01:02;;;;;;;33.33;19.65;;;8.40;87.20;;;;;;5032717;28;20041;-81
2021/12/25 07:03:29;;;;;;;36.05;19.65;;;8.40;87.20;;;;;;5017197;28;20560;-81
2021/12/25 07:05:56;;;;;;;32.70;20.83;;;8.40;87.20;;;;;;5027439;28;20528;-81
2021/12/25 07:08:23;;;;;;;32.90;19.60;;;8.40;87.20;;;;;;5032669;28;20046;-81
2021/12/25 07:10:50;;;;;;;27.27;19.40;;;8.40;87.10;;;;;;5032709;28;20486;-81
2021/12/25 07:13:19;;;;;;;31.65;19.17;;;8.40;87.20;;;;;;5032667;28;20045;-80
2021/12/25 07:15:47;;;;;;;30.40;20.90;;;8.40;87.20;;;;;;5034015;28;20047;-81
2021/12/25 07:18:16;;;;;;;32.22;19.23;;;8.40;87.20;;;;;;5036603;28;20509;-81
2021/12/25 07:20:44;;;;;;;29.95;18.42;;;8.40;87.20;;;;;;5035253;28;20056;-80
2021/12/25 07:23:11;;;;;;;31.05;18.50;;;8.30;87.10;;;;;;5036237;28;20046;-81
2021/12/25 07:25:38;;;;;;;33.83;18.13;;;8.30;87.10;;;;;;5036326;28;20111;-81
2021/12/25 07:28:05;;;;;;;28.85;17.73;;;8.30;87.10;;;;;;5036325;28;20045;-81
2021/12/25 07:30:33;;;;;;;27.60;18.55;;;8.30;87.10;;;;;;5036346;28;20135;-81
2021/12/25 07:33:00;;;;;;;29.02;18.80;;;8.30;87.10;;;;;;5035230;28;20053;-81
2021/12/25 07:35:27;;;;;;;33.72;18.58;;;8.30;87.10;;;;;;5037462;28;20498;-81
2021/12/25 07:37:55;;;;;;;31.08;19.05;;;8.30;87.10;;;;;;5036114;28;20043;-81
2021/12/25 07:40:22;;;;;;;28.67;19.05;;;8.30;87.10;;;;;;5035884;28;20053;-81
2021/12/25 07:42:50;;;;;;;27.85;18.25;;;8.20;87.10;;;;;;5036034;28;20045;-81
2021/12/25 07:45:17;;;;;;;26.58;18.27;;;8.20;87.10;;;;;;5035908;28;20051;-81
2021/12/25 07:47:55;;;;;;;32.60;17.85;;;8.20;87.10;;;;;;5035145;28;20053;-80
2021/12/25 07:50:23;;;;;;;25.95;16.98;;;8.20;87.10;;;;;;5035444;28;20041;-81
2021/12/25 07:52:50;;;;;;;25.80;17.58;;;8.20;87.10;;;;;;5035822;28;20061;-81
2021/12/25 07:55:17;;;;;;;25.75;17.25;;;8.20;87.10;;;;;;5035666;28;20047;-81
2021/12/25 07:57:45;;;;;;;29.63;17.45;;;8.20;87.10;;;;;;5067564;28;20056;-80
2021/12/25 08:00:14;;;;;;;27.27;18.70;;;8.20;87.10;;;;;;5035624;28;20050;-80
2021/12/25 08:02:42;;;;;;;33.03;21.58;;;8.20;87.10;;;;;;5032889;28;20053;-81
2021/12/25 08:05:10;;;;;;;31.73;21.33;;;8.20;87.10;;;;;;5035033;28;20057;-81
2021/12/25 08:07:38;;;;;;;40.75;23.80;;;8.20;87.20;;;;;;5035524;28;20048;-80
2021/12/25 08:10:17;;;;;;;32.22;22.50;;;8.20;87.20;;;;;;5035532;28;20061;-81
2021/12/25 08:12:50;;;;;;;32.60;20.83;;;8.20;87.20;;;;;;5035630;28;20502;-81
2021/12/25 08:15:21;;;;;;;36.13;21.48;;;8.20;87.20;;;;;;5035551;28;20045;-80
2021/12/25 08:17:49;;;;;;;32.83;21.48;;;8.20;87.20;;;;;;5034604;28;20050;-80
2021/12/25 08:20:21;;;;;;;33.88;22.35;;;8.20;87.20;;;;;;5035131;28;20071;-81
2021/12/25 08:22:48;;;;;;;36.80;21.85;;;8.20;87.20;;;;;;5035190;28;20049;-81
2021/12/25 08:25:17;;;;;;;39.47;23.02;;;8.20;87.20;;;;;;5035109;28;20042;-81
2021/12/25 08:27:45;;;;;;;38.13;22.77;;;8.20;87.20;;;;;;5034532;28;20046;-80
2021/12/25 08:30:16;;;;;;;44.03;22.92;;;8.20;87.20;;;;;;5035120;28;20490;-80
2021/12/25 08:32:43;;;;;;;41.25;23.27;;;8.20;87.20;;;;;;5032264;28;20049;-81
2021/12/25 08:35:13;;;;;;;41.10;22.80;;;8.20;87.30;;;;;;5066905;28;20055;-81
2021/12/25 08:37:41;;;;;;;41.70;23.70;;;8.20;87.30;;;;;;5034940;28;20051;-81
2021/12/25 08:40:09;;;;;;;35.28;22.52;;;8.20;87.30;;;;;;5035000;28;20136;-81
2021/12/25 08:42:37;;;;;;;36.72;25.00;;;8.20;87.30;;;;;;5034889;28;20433;-81
2021/12/25 08:45:09;;;;;;;36.92;23.67;;;8.20;87.30;;;;;;5033953;28;20053;-80
2021/12/25 08:47:37;;;;;;;41.13;23.60;;;8.20;87.30;;;;;;5035478;28;20061;-81
2021/12/25 08:50:08;;;;;;;37.22;25.77;;;8.20;87.30;;;;;;5034805;28;20510;-81
2021/12/25 08:52:36;;;;;;;40.95;27.08;;;8.20;87.30;;;;;;5034673;28;20536;-81
2021/12/25 08:55:04;;;;;;;43.20;27.25;;;8.20;87.30;;;;;;5034537;28;20041;-81
2021/12/25 08:57:31;;;;;;;38.15;25.77;;;8.20;87.30;;;;;;5034640;28;20056;-81
2021/12/25 08:59:58;;;;;;;42.22;26.25;;;8.20;87.30;;;;;;5033912;28;20041;-81
2021/12/25 09:02:27;;;;;;;36.30;25.73;;;8.20;87.30;;;;;;5035422;28;20413;-81
2021/12/25 09:04:54;;;;;;;35.47;23.77;;;8.20;87.30;;;;;;5034189;28;20045;-81
2021/12/25 09:07:21;;;;;;;35.85;22.95;;;8.30;87.40;;;;;;5034297;28;20050;-81
2021/12/25 09:09:48;;;;;;;35.60;23.10;;;8.30;87.40;;;;;;5034343;28;20041;-80
2021/12/25 09:12:16;;;;;;;48.22;26.52;;;8.30;87.40;;;;;;5034481;28;20060;-81
2021/12/25 09:14:44;;;;;;;38.35;22.23;;;8.30;87.40;;;;;;5033639;28;20060;-81
2021/12/25 09:17:13;;;;;;;47.65;25.35;;;8.30;87.40;;;;;;5033833;28;20050;-81
2021/12/25 09:19:41;;;;;;;35.22;19.83;;;8.30;87.40;;;;;;5034126;28;20052;-81
2021/12/25 09:22:09;;;;;;;41.13;25.25;;;8.30;87.40;;;;;;5034117;28;20045;-81
2021/12/25 09:24:37;;;;;;;44.60;22.45;;;8.30;87.40;;;;;;5034266;28;20049;-81
2021/12/25 09:27:05;;;;;;;29.85;17.55;;;8.30;87.40;;;;;;5033191;28;20049;-81
2021/12/25 09:29:32;;;;;;;44.58;23.95;;;8.30;87.40;;;;;;5034311;28;20055;-81
2021/12/25 09:32:00;;;;;;;44.20;23.67;;;8.30;87.40;;;;;;5033558;28;20045;-81
2021/12/25 09:34:27;;;;;;;50.22;24.58;;;8.30;87.50;;;;;;5033965;28;20041;-81
2021/12/25 09:36:54;;;;;;;46.10;22.48;;;8.30;87.40;;;;;;5033778;28;20052;-81
2021/12/25 09:39:21;;;;;;;37.60;21.48;;;8.30;87.50;;;;;;5033980;28;20049;-81
2021/12/25 09:41:48;;;;;;;48.78;25.27;;;8.40;87.50;;;;;;5032949;28;20052;-81
2021/12/25 09:44:16;;;;;;;41.53;23.73;;;8.40;87.50;;;;;;5033729;28;20490;-81
2021/12/25 09:46:43;;;;;;;48.13;25.45;;;8.40;87.40;;;;;;5033375;28;20042;-81
2021/12/25 09:49:11;;;;;;;40.25;22.33;;;8.40;87.50;;;;;;5033614;28;20053;-81
2021/12/25 09:51:38;;;;;;;51.20;24.10;;;8.40;87.40;;;;;;5033813;28;20064;-81
2021/12/25 09:54:11;;;;;;;46.33;23.52;;;8.40;87.50;;;;;;5032887;28;20045;-81
2021/12/25 09:56:41;;;;;;;41.67;23.50;;;8.40;87.40;;;;;;5034703;28;20068;-81
2021/12/25 09:59:11;;;;;;;38.65;23.20;;;8.40;87.40;;;;;;5033418;28;20045;-81
2021/12/25 10:01:49;;;;;;;48.15;25.75;;;8.40;87.40;;;;;;5033238;28;20049;-80
2021/12/25 10:04:36;;;;;;;46.70;22.08;;;8.40;87.40;;;;;;5033073;28;20049;-81
2021/12/25 10:07:23;;;;;;;57.05;27.88;;;8.40;87.40;;;;;;5033298;28;20041;-81
2021/12/25 10:10:04;;;;;;;42.88;23.38;;;8.40;87.40;;;;;;5033284;28;20843;-81
2021/12/25 10:12:40;;;;;;;47.60;22.23;;;8.40;87.40;;;;;;5018008;28;20049;-81
2021/12/25 10:15:11;;;;;;;37.58;21.30;;;8.40;87.40;;;;;;5030697;28;20047;-81
2021/12/25 10:17:53;;;;;;;32.00;18.85;;;8.40;87.40;;;;;;5032513;28;20502;-81
2021/12/25 10:20:22;;;;;;;32.75;19.38;;;8.40;87.40;;;;;;5033153;28;20533;-81
2021/12/25 10:22:59;;;;;;;32.13;18.65;;;8.40;87.40;;;;;;5032982;28;20412;-81
2021/12/25 10:25:32;;;;;;;34.55;21.90;;;8.40;87.30;;;;;;5033057;28;20050;-81
2021/12/25 10:28:06;;;;;;;35.33;19.95;;;8.40;87.30;;;;;;5033239;28;20064;-81
2021/12/25 10:30:46;;;;;;;;;;;8.40;87.30;;;;;;5018209;28;20045;-80
2021/12/25 10:33:31;;;;;;;28.90;18.58;;;8.40;87.30;;;;;;5033026;28;19928;-80
2021/12/25 10:36:03;;;;;;;30.05;20.80;;;8.40;87.30;;;;;;5028301;28;20414;-80
2021/12/25 10:38:30;;;;;;;31.05;20.67;;;8.40;87.30;;;;;;5032994;28;20413;-80
2021/12/25 10:41:22;;;;;;;35.38;22.33;;;8.40;87.30;;;;;;5032998;28;20041;-82
2021/12/25 10:43:53;;;;;;;31.08;20.35;;;8.30;87.30;;;;;;5032542;28;20057;-81
2021/12/25 10:46:20;;;;;;;32.10;20.92;;;8.30;87.20;;;;;;5032835;28;20046;-80
2021/12/25 10:48:47;;;;;;;27.98;19.40;;;8.30;87.30;;;;;;5033086;28;20049;-80
2021/12/25 10:51:29;;;;;;;29.52;19.40;;;8.30;87.30;;;;;;5035109;28;20045;-80
2021/12/25 10:53:58;;;;;;;26.33;19.27;;;8.30;87.30;;;;;;5032013;28;20132;-80
2021/12/25 10:56:37;;;;;;;29.25;19.40;;;8.30;87.20;;;;;;5038273;28;20051;-80
2021/12/25 10:59:16;;;;;;;27.88;19.58;;;8.30;87.20;;;;;;5036360;28;20052;-80
2021/12/25 11:01:47;;;;;;;26.83;18.50;;;8.20;87.20;;;;;;5035578;28;20051;-80
2021/12/25 11:04:35;;;;;;;28.27;19.35;;;8.30;87.20;;;;;;5036546;28;20060;-80
2021/12/25 11:07:16;;;;;;;30.13;19.80;;;8.20;87.20;;;;;;5036628;28;20045;-80
2021/12/25 11:10:21;;;;;;;30.48;20.98;;;8.20;87.20;;;;;;5022878;28;20046;-80
2021/12/25 11:12:48;;;;;;;33.05;22.13;;;8.20;87.20;;;;;;5001341;28;20042;-81
2021/12/25 11:15:21;;;;;;;32.63;21.90;;;8.20;87.20;;;;;;5014655;28;20469;-80
2021/12/25 11:18:04;;;;;;;39.13;23.58;;;8.20;87.20;;;;;;5013803;28;20050;-80
2021/12/25 11:20:37;;;;;;;40.03;26.15;;;8.20;87.20;;;;;;5014675;28;20482;-81
2021/12/25 11:23:08;;;;;;;30.77;21.15;;;8.20;87.20;;;;;;5014241;28;20053;-80
2021/12/25 11:25:37;;;;;;;45.22;30.92;;;8.20;87.20;;;;;;5014272;28;20045;-80
2021/12/25 11:28:09;;;;;;;32.92;23.27;;;8.20;87.30;;;;;;5014049;28;20050;-83
2021/12/25 11:30:49;;;;;;;38.17;23.98;;;8.20;87.20;;;;;;5014416;28;20594;-80
2021/12/25 11:33:17;;;;;;;40.92;24.35;;;8.20;87.20;;;;;;5014173;28;20065;-80
2021/12/25 11:35:44;;;;;;;36.50;23.70;;;8.10;87.20;;;;;;5013423;28;20049;-80
2021/12/25 11:38:11;;;;;;;31.48;21.52;;;8.10;87.20;;;;;;5014046;28;20455;-80
2021/12/25 11:40:45;;;;;;;32.88;22.83;;;8.10;87.20;;;;;;5014094;28;20062;-80
2021/12/25 11:43:13;;;;;;;24.88;18.92;;;8.10;87.20;;;;;;5019967;28;20048;-83
2021/12/25 11:45:48;;;;;;;28.35;19.50;;;8.10;87.20;;;;;;5034812;28;20045;-81
2021/12/25 11:48:19;;;;;;;32.38;21.38;;;8.10;87.20;;;;;;5036026;28;20053;-82
2021/12/25 11:50:52;;;;;;;32.15;21.38;;;8.10;87.20;;;;;;5035243;28;20041;-82
2021/12/25 11:54:07;;;;;;;25.58;19.30;;;8.10;87.20;;;;;;5035841;28;20057;-82
2021/12/25 11:56:50;;;;;;;28.05;19.13;;;8.10;87.10;;;;;;5035862;28;20046;-82
2021/12/25 11:59:17;;;;;;;28.83;19.85;;;8.00;87.20;;;;;;5035718;28;20038;-82
2021/12/25 12:01:52;;;;;;;27.92;19.33;;;8.00;87.10;;;;;;5034920;28;20049;-82
2021/12/25 12:04:24;;;;;;;29.67;19.90;;;8.00;87.10;;;;;;5035251;28;20509;-82
2021/12/25 12:06:56;;;;;;;26.17;19.40;;;8.00;87.10;;;;;;5035558;28;20484;-81
2021/12/25 12:09:44;;;;;;;26.05;18.05;;;8.00;87.10;;;;;;5035657;28;20055;-81
2021/12/25 12:12:18;;;;;;;26.60;19.35;;;8.00;87.10;;;;;;5032565;28;20045;-81
2021/12/25 12:15:14;;;;;;;27.60;19.90;;;8.00;87.10;;;;;;5033227;28;20060;-80
2021/12/25 12:17:43;;;;;;;25.85;19.77;;;8.00;87.10;;;;;;5032659;28;20159;-81
2021/12/25 12:20:16;;;;;;;26.25;19.95;;;7.90;87.10;;;;;;5035525;28;20137;-81
2021/12/25 12:23:05;;;;;;;27.20;18.40;;;7.90;87.10;;;;;;5035252;28;20055;-81
2021/12/25 12:25:49;;;;;;;37.05;25.02;;;7.90;87.10;;;;;;5034847;28;20049;-81
2021/12/25 12:28:16;;;;;;;36.55;23.25;;;7.90;87.10;;;;;;5035332;28;20048;-81
2021/12/25 12:30:49;;;;;;;30.60;22.05;;;7.90;87.10;;;;;;5035271;28;20086;-81
2021/12/25 12:33:17;;;;;;;33.88;23.52;;;7.90;87.10;;;;;;5035107;28;20129;-81
2021/12/25 12:35:47;;;;;;;34.75;23.25;;;7.90;87.10;;;;;;5034373;28;20056;-81
2021/12/25 12:38:43;;;;;;;39.83;26.90;;;7.90;87.10;;;;;;5035026;28;20048;-81
2021/12/25 12:41:20;;;;;;;37.20;25.77;;;7.80;87.10;;;;;;5034408;28;20514;-81
2021/12/25 12:44:05;;;;;;;36.55;26.10;;;7.80;87.00;;;;;;5034726;28;20046;-81
2021/12/25 12:46:50;;;;;;;40.05;25.52;;;7.80;87.00;;;;;;5066526;28;20041;-81
2021/12/25 12:49:26;;;;;;;32.25;23.23;;;7.80;87.00;;;;;;5034596;28;20430;-82
2021/12/25 12:52:14;;;;;;;31.95;23.05;;;7.80;87.00;;;;;;5034742;28;20072;-81
2021/12/25 12:54:47;;;;;;;34.08;22.77;;;7.70;87.00;;;;;;5020256;28;20120;-81
2021/12/25 12:57:18;;;;;;;37.85;23.25;;;7.70;87.00;;;;;;5034659;28;20049;-81
2021/12/25 12:59:57;;;;;;;33.22;22.33;;;7.70;87.00;;;;;;5032377;28;20045;-81
2021/12/25 13:02:28;;;;;;;36.53;24.20;;;7.70;87.00;;;;;;5034565;28;20059;-81
2021/12/25 13:04:59;;;;;;;35.53;23.25;;;7.70;87.00;;;;;;5034164;28;20115;-81
2021/12/25 13:07:29;;;;;;;35.78;24.08;;;7.70;87.00;;;;;;5034523;28;20079;-81
2021/12/25 13:10:07;;;;;;;34.05;24.05;;;7.70;87.00;;;;;;5034084;28;20413;-81
2021/12/25 13:12:44;;;;;;;33.85;23.08;;;7.60;87.00;;;;;;5019346;28;20045;-81
2021/12/25 13:15:16;;;;;;;37.78;23.70;;;7.60;87.00;;;;;;5033612;28;20053;-81
2021/12/25 13:17:52;;;;;;;34.05;24.92;;;7.60;87.00;;;;;;5031855;28;20064;-81
2021/12/25 13:20:33;;;;;;;35.53;24.30;;;7.60;87.00;;;;;;5034259;28;20421;-81
2021/12/25 13:23:03;;;;;;;40.13;25.35;;;7.60;87.00;;;;;;5033686;28;20045;-81
2021/12/25 13:25:30;;;;;;;35.45;26.10;;;7.60;87.00;;;;;;5065897;28;20045;-81
2021/12/25 13:28:02;;;;;;;37.88;27.13;;;7.60;87.00;;;;;;5034127;28;20044;-81
2021/12/25 13:30:31;;;;;;;37.88;25.98;;;7.50;87.00;;;;;;5018474;28;20055;-81
2021/12/25 13:33:14;;;;;;;41.60;27.90;;;7.60;87.00;;;;;;5029259;28;20045;-81
2021/12/25 13:35:41;;;;;;;43.58;28.58;;;7.50;87.00;;;;;;5031156;28;20054;-81
2021/12/25 13:38:13;;;;;;;50.05;30.80;;;7.50;87.00;;;;;;5033595;28;20124;-81
2021/12/25 13:40:47;;;;;;;41.35;27.85;;;7.50;87.00;;;;;;5033792;28;20076;-81
2021/12/25 13:43:14;;;;;;;39.15;28.40;;;7.50;87.00;;;;;;5033603;28;20061;-81
2021/12/25 13:45:41;;;;;;;41.20;27.77;;;7.50;87.00;;;;;;5033704;28;20048;-81
2021/12/25 13:48:09;;;;;;;41.78;29.50;;;7.50;87.00;;;;;;5033168;28;20099;-81
2021/12/25 13:50:39;;;;;;;43.20;29.95;;;7.50;87.00;;;;;;5033035;28;20144;-82
2021/12/25 13:53:19;;;;;;;45.22;29.10;;;7.50;87.00;;;;;;5033206;28;20051;-83
2021/12/25 13:55:47;;;;;;;43.88;29.52;;;7.50;87.00;;;;;;5033408;28;20052;-82
2021/12/25 13:58:17;;;;;;;41.80;29.33;;;7.50;87.00;;;;;;5033597;28;20052;-82
2021/12/25 14:00:50;;;;;;;46.83;29.88;;;7.50;87.00;;;;;;5033612;28;20050;-82
2021/12/25 14:03:22;;;;;;;45.73;31.70;;;7.50;87.00;;;;;;5033410;28;20049;-82
2021/12/25 14:05:52;;;;;;;45.22;31.05;;;7.40;87.00;;;;;;5032444;28;20051;-82
2021/12/25 14:08:25;;;;;;;47.65;33.15;;;7.40;87.00;;;;;;5033421;28;20079;-81
2021/12/25 14:10:59;;;;;;;49.50;32.70;;;7.40;87.00;;;;;;5065080;28;20059;-81
2021/12/25 14:13:29;;;;;;;51.05;33.55;;;7.40;87.00;;;;;;5033206;28;20044;-82
2021/12/25 14:15:58;;;;;;;55.88;34.67;;;7.40;87.00;;;;;;5033352;28;20086;-81
2021/12/25 14:18:36;;;;;;;53.97;33.80;;;7.40;87.00;;;;;;5033302;28;20665;-81